createdAt,value
2019-06-10T00:02:41.423Z,2.60
2019-06-10T00:08:05.853Z,3.00
2019-06-10T00:13:31.530Z,2.25
2019-06-10T00:18:55.945Z,2.72
2019-06-10T00:24:21.302Z,2.60
2019-06-10T00:29:45.769Z,2.77
2019-06-10T00:35:12.155Z,2.22
2019-06-10T00:40:35.305Z,2.55
2019-06-10T00:46:00.708Z,2.30
2019-06-10T00:51:24.829Z,2.65
2019-06-10T00:56:48.414Z,2.60
2019-06-10T01:02:14.450Z,2.37
2019-06-10T01:07:41.218Z,2.67
2019-06-10T01:13:05.093Z,2.70
2019-06-10T01:18:35.619Z,2.50
2019-06-10T01:23:55.306Z,2.33
2019-06-10T01:29:21.089Z,2.55
2019-06-10T01:34:44.818Z,2.42
2019-06-10T01:40:13.122Z,2.40
2019-06-10T01:45:35.516Z,2.75
2019-06-10T01:51:01.843Z,2.95
2019-06-10T01:56:25.792Z,2.65
2019-06-10T02:02:04.152Z,2.77
2019-06-10T02:07:31.827Z,2.50
2019-06-10T02:12:56.360Z,2.65
2019-06-10T02:18:22.460Z,2.85
2019-06-10T02:23:47.069Z,2.80
2019-06-10T02:29:13.180Z,2.50
2019-06-10T02:34:45.997Z,2.50
2019-06-10T02:40:04.472Z,2.87
2019-06-10T02:45:33.681Z,2.70
2019-06-10T02:51:07.880Z,2.90
2019-06-10T02:56:36.206Z,3.27
2019-06-10T03:01:57.700Z,2.70
2019-06-10T03:07:26.779Z,2.95
2019-06-10T03:12:48.071Z,3.22
2019-06-10T03:18:12.913Z,2.85
2019-06-10T03:23:37.145Z,3.20
2019-06-10T03:29:02.669Z,2.92
2019-06-10T03:34:36.165Z,4.35
2019-06-10T03:39:54.874Z,4.10
2019-06-10T03:45:21.140Z,4.12
2019-06-10T03:50:45.755Z,5.00
2019-06-10T03:56:09.451Z,5.83
2019-06-10T04:01:35.231Z,7.83
2019-06-10T04:07:03.572Z,6.37
2019-06-10T04:12:27.527Z,6.65
2019-06-10T04:17:53.070Z,7.37
2019-06-10T04:23:17.736Z,7.87
2019-06-10T04:28:42.954Z,8.37
2019-06-10T04:34:06.966Z,9.30
2019-06-10T04:39:30.636Z,10.07
2019-06-10T04:44:55.258Z,8.70
2019-06-10T04:50:27.039Z,8.43
2019-06-10T04:55:45.227Z,8.65
2019-06-10T05:01:12.009Z,8.77
2019-06-10T05:06:35.652Z,8.90
2019-06-10T05:11:59.755Z,9.23
2019-06-10T05:17:26.128Z,8.50
2019-06-10T05:22:50.036Z,8.17
2019-06-10T05:28:13.971Z,6.90
2019-06-10T05:33:38.439Z,7.85
2019-06-10T05:39:03.201Z,7.37
2019-06-10T05:44:28.450Z,6.63
2019-06-10T05:49:53.045Z,6.62
2019-06-10T05:55:17.843Z,7.40
2019-06-10T06:00:42.894Z,6.30
2019-06-10T06:06:07.368Z,6.58
2019-06-10T06:11:34.023Z,5.83
2019-06-10T06:16:57.326Z,5.60
2019-06-10T06:22:22.195Z,5.53
2019-06-10T06:27:45.796Z,4.85
2019-06-10T06:33:09.726Z,4.75
2019-06-10T06:38:35.353Z,4.80
2019-06-10T06:43:59.074Z,4.30
2019-06-10T06:49:23.499Z,4.75
2019-06-10T06:54:47.096Z,4.03
2019-06-10T07:00:37.437Z,3.80
2019-06-10T07:05:41.052Z,3.98
2019-06-10T07:11:05.221Z,4.42
2019-06-10T07:16:31.909Z,3.98
2019-06-10T07:22:08.865Z,4.12
2019-06-10T07:27:22.628Z,3.60
2019-06-10T07:32:47.391Z,4.00
2019-06-10T07:38:12.442Z,3.98
2019-06-10T07:43:40.853Z,4.12
2019-06-10T07:49:03.386Z,4.35
2019-06-10T07:54:27.986Z,3.95
2019-06-10T07:59:52.748Z,3.87
2019-06-10T08:05:17.627Z,4.03
2019-06-10T08:10:44.854Z,4.20
2019-06-10T08:16:08.359Z,4.70
2019-06-10T08:21:32.708Z,4.33
2019-06-10T08:26:57.313Z,3.95
2019-06-10T08:32:24.247Z,4.80
2019-06-10T08:37:47.457Z,4.47
2019-06-10T08:43:13.392Z,4.62
2019-06-10T08:48:37.558Z,4.67
2019-06-10T08:54:02.551Z,4.30
2019-06-10T08:59:27.579Z,3.85
2019-06-10T09:04:53.598Z,4.28
2019-06-10T09:10:17.786Z,4.35
2019-06-10T09:15:44.997Z,4.70
2019-06-10T09:21:07.259Z,4.95
2019-06-10T09:26:33.690Z,5.22
2019-06-10T09:31:57.315Z,4.85
2019-06-10T09:37:23.334Z,4.85
2019-06-10T09:42:49.700Z,5.75
2019-06-10T09:48:13.608Z,5.35
2019-06-10T09:53:42.776Z,5.12
2019-06-10T09:59:04.037Z,5.08
2019-06-10T10:04:28.638Z,5.47
2019-06-10T10:09:57.003Z,5.15
2019-06-10T10:15:27.473Z,5.53
2019-06-10T10:20:48.072Z,5.12
2019-06-10T10:26:13.196Z,5.87
2019-06-10T10:31:36.173Z,5.37
2019-06-10T10:37:02.743Z,5.92
2019-06-10T10:42:39.146Z,5.65
2019-06-10T10:47:56.389Z,5.80
2019-06-10T10:53:18.157Z,5.97
2019-06-10T10:58:45.341Z,5.70
2019-06-10T11:04:08.517Z,6.65
2019-06-10T11:09:33.212Z,6.20
2019-06-10T11:15:01.912Z,6.25
2019-06-10T11:20:23.776Z,6.65
2019-06-10T11:25:48.259Z,6.08
2019-06-10T11:31:13.866Z,6.05
2019-06-10T11:36:38.580Z,7.03
2019-06-10T11:42:03.989Z,6.72
2019-06-10T11:47:28.701Z,6.55
2019-06-10T11:52:55.461Z,7.45
2019-06-10T11:58:17.893Z,6.62
2019-06-10T12:03:43.417Z,6.95
2019-06-10T12:09:09.242Z,7.08
2019-06-10T12:14:33.966Z,7.08
2019-06-10T12:20:02.543Z,6.30
2019-06-10T12:25:34.715Z,6.28
2019-06-10T12:30:50.329Z,6.90
2019-06-10T12:36:15.129Z,7.47
2019-06-10T12:41:39.102Z,6.80
2019-06-10T12:47:07.582Z,6.25
2019-06-10T12:52:29.699Z,6.75
2019-06-10T12:57:54.399Z,6.87
2019-06-10T13:03:19.156Z,6.15
2019-06-10T13:08:45.085Z,7.10
2019-06-10T13:14:09.296Z,7.40
2019-06-10T13:19:35.166Z,7.80
2019-06-10T13:25:00.644Z,7.53
2019-06-10T13:30:25.523Z,7.87
2019-06-10T13:35:49.809Z,7.22
2019-06-10T13:41:13.892Z,7.80
2019-06-10T13:46:37.753Z,7.40
2019-06-10T13:52:09.132Z,7.22
2019-06-10T13:57:28.909Z,7.55
2019-06-10T14:02:52.604Z,7.40
2019-06-10T14:08:17.208Z,7.78
2019-06-10T14:13:43.134Z,7.72
2019-06-10T14:19:08.985Z,7.78
2019-06-10T14:24:33.044Z,7.78
2019-06-10T14:29:58.175Z,7.78
2019-06-10T14:35:22.864Z,7.62
2019-06-10T14:40:47.655Z,7.22
2019-06-10T14:46:14.346Z,8.18
2019-06-10T14:51:37.285Z,8.98
2019-06-10T14:57:02.648Z,8.65
2019-06-10T15:02:26.540Z,7.70
2019-06-10T15:07:52.877Z,6.92
2019-06-10T15:13:16.800Z,8.08
2019-06-10T15:18:43.192Z,7.62
2019-06-10T15:24:08.180Z,7.40
2019-06-10T15:29:32.821Z,7.85
2019-06-10T15:34:57.989Z,7.72
2019-06-10T15:40:23.169Z,7.75
2019-06-10T15:45:47.899Z,7.35
2019-06-10T15:51:15.340Z,7.62
2019-06-10T15:56:48.725Z,8.15
2019-06-10T16:02:04.695Z,7.65
2019-06-10T16:07:28.295Z,7.80
2019-06-10T16:12:52.933Z,7.17
2019-06-10T16:18:18.209Z,7.55
2019-06-10T16:23:43.016Z,6.80
2019-06-10T16:29:07.453Z,7.62
2019-06-10T16:34:32.554Z,7.90
2019-06-10T16:39:56.530Z,8.40
2019-06-10T16:45:27.670Z,8.13
2019-06-10T16:50:47.508Z,8.10
2019-06-10T16:56:12.180Z,8.03
2019-06-10T17:01:36.891Z,7.97
2019-06-10T17:07:02.138Z,8.80
2019-06-10T17:12:27.595Z,8.05
2019-06-10T17:17:52.588Z,7.67
2019-06-10T17:23:27.068Z,8.95
2019-06-10T17:28:49.242Z,8.45
2019-06-10T17:34:14.215Z,9.10
2019-06-10T17:39:38.243Z,8.93
2019-06-10T17:45:02.512Z,7.47
2019-06-10T17:50:28.055Z,7.70
2019-06-10T17:55:52.969Z,7.95
2019-06-10T18:01:18.163Z,7.37
2019-06-10T18:06:42.921Z,7.45
2019-06-10T18:12:07.534Z,7.92
2019-06-10T18:17:34.854Z,7.95
2019-06-10T18:22:57.537Z,8.95
2019-06-10T18:28:22.635Z,8.58
2019-06-10T18:33:47.570Z,9.63
2019-06-10T18:39:12.354Z,8.18
2019-06-10T18:44:37.556Z,8.80
2019-06-10T18:50:02.516Z,7.92
2019-06-10T18:55:26.200Z,7.90
2019-06-10T19:01:00.600Z,8.35
2019-06-10T19:06:15.685Z,8.50
2019-06-10T19:11:40.976Z,8.60
2019-06-10T19:17:06.599Z,8.43
2019-06-10T19:22:33.097Z,8.55
2019-06-10T19:27:56.251Z,9.53
2019-06-10T19:33:20.141Z,8.83
2019-06-10T19:38:44.880Z,9.45
2019-06-10T19:44:08.852Z,9.03
2019-06-10T19:49:34.173Z,9.80
2019-06-10T19:54:58.004Z,9.43
2019-06-10T20:00:23.491Z,10.25
2019-06-10T20:05:48.350Z,11.03
2019-06-10T20:11:14.327Z,10.30
2019-06-10T20:16:39.814Z,10.05
2019-06-10T20:22:04.539Z,11.53
2019-06-10T20:27:29.130Z,11.25
2019-06-10T20:32:56.260Z,10.98
2019-06-10T20:38:19.300Z,11.70
2019-06-10T20:43:45.620Z,11.60
2019-06-10T20:49:09.524Z,11.20
2019-06-10T20:54:34.169Z,11.88
2019-06-10T20:59:58.745Z,12.45
2019-06-10T21:05:23.534Z,12.18
2019-06-10T21:10:49.814Z,12.10
2019-06-10T21:16:13.455Z,12.70
2019-06-10T21:21:38.375Z,13.72
2019-06-10T21:27:02.796Z,13.30
2019-06-10T21:32:26.495Z,14.50
2019-06-10T21:37:51.721Z,14.18
2019-06-10T21:43:15.698Z,14.30
2019-06-10T21:48:42.943Z,14.90
2019-06-10T21:54:06.810Z,14.85
2019-06-10T21:59:32.166Z,16.77
2019-06-10T22:04:57.284Z,18.60
2019-06-10T22:10:22.939Z,17.92
2019-06-10T22:15:48.274Z,21.00
2019-06-10T22:21:14.734Z,22.07
2019-06-10T22:26:39.164Z,24.50
2019-06-10T22:32:03.931Z,28.15
2019-06-10T22:37:28.366Z,36.88
2019-06-10T22:42:55.144Z,30.05
2019-06-10T22:48:18.662Z,29.15
2019-06-10T22:53:43.535Z,38.10
2019-06-10T22:59:07.636Z,36.75
2019-06-10T23:04:33.151Z,32.17
2019-06-10T23:09:59.067Z,33.90
2019-06-10T23:15:23.969Z,38.30
2019-06-10T23:20:49.251Z,37.78
2019-06-10T23:26:13.146Z,40.28
2019-06-10T23:31:49.575Z,56.83
2019-06-10T23:37:03.157Z,61.25
2019-06-10T23:42:27.248Z,50.25
2019-06-10T23:47:52.964Z,40.38
2019-06-10T23:53:16.818Z,38.50
2019-06-10T23:58:43.178Z,25.55
